RKPC

Jeju International Airport

Jeju City, South Korea
TAF RKPC 201700Z 2018/2124 17005KT CAVOK TN11/2021Z TX21/2106Z TN15/2120Z BECMG 2023/2024 05005KT BECMG 2111/2112 17005KT 7000 SCT030 BKN150
Issued Valid From Valid To
Apr-20 @ 17:00 UTC
(2 hours ago)
Apr-20 @ 18:00 UTC
(40 minutes ago)
Apr-22 @ 00:00 UTC
(-1 days ago)
Apr-20 @ 18:00 to Apr-20 @ 23:00
TAF RKPC 201700Z 2018/2124 17005KT CAVOK TN11/2021Z TX21/2106Z TN15/2120Z
Wind Visibility Clouds
170° at 5 knots 10,000+ meters
  • No significant clouds
Becoming Apr-20 @ 23:00 to Apr-21 @ 11:00
BECMG 2023/2024 05005KT
Wind Visibility Clouds
50° at 5 knots 10,000+ meters
  • No significant clouds
Becoming Apr-21 @ 11:00 to Apr-22 @ 00:00
BECMG 2111/2112 17005KT 7000 SCT030 BKN150
Wind Visibility Clouds
170° at 5 knots 7,001 meters
  • Scattered at 3,000' AGL
  • Broken at 15,000' AGL
TAF RKPC 201700Z 2018/2124 17005KT CAVOK TN11/2021Z TX21/2106Z TN15/2120Z BECMG 2023/2024 05005KT BECMG 2111/2112 17005KT 7000 SCT030 BKN150
Issued Apr-20 @ 17:00 UTC
(2 hours ago)
Valid From Apr-20 @ 18:00 UTC
(40 minutes ago)
Valid To Apr-22 @ 00:00 UTC
(-1 days ago)
Apr-20 @ 18:00 - Apr-20 @ 23:00
Wind Visibility
170° at 5 knots 10,000+ meters
Clouds
  • No significant clouds
Becoming Apr-20 @ 23:00 - Apr-21 @ 11:00
Wind Visibility
50° at 5 knots 10,000+ meters
Clouds
  • No significant clouds
Becoming Apr-21 @ 11:00 - Apr-22 @ 00:00
Wind Visibility
170° at 5 knots 7,001 meters
Clouds
  • Scattered at 3,000' AGL
  • Broken at 15,000' AGL